Startpagina
METAR-TAF:

METAR-TAF

Vliegvelden :

Mauritius, Mauritius

breedte: 20-26S, lengte: 057-40E, hoogte: 55 m

Actueel weer

Dit bericht is 56 minuten geleden gemaakt, om 11:00 UTC
Wind 16 kt uit het noordoosten
Temperatuur 28°C
Vochtigheid 70%
Druk 1013 hPa
Zicht 10 km of meer
Weinig wolken op 1900 ft

METAR: FIMP 171100Z 04016KT 9999 FEW019 28/22 Q1013

Tijdstip: 15:56 (11:56 UTC)

Verwachting

Dit bericht is 36 minuten geleden gemaakt, om 11:20 UTC
Verwachting geldig van 17 om 12 UTC tot 18 om 18 UTC
Wind 12 kt uit het noordoosten
Zicht 10 km of meer
Verspreide wolken op 1800 ft
Wijzigt naar
van 17 om 20 UTC tot 17 om 22 UTC
Wind 5 kt uit het noordnoordwesten
Kans 30% :
Tijdelijke
van 18 om 00 UTC tot 18 om 06 UTC
Zicht: 7000 m
Gebroken wolken op 1500 ft
lichte regenbuien
Wijzigt naar
van 18 om 04 UTC tot 18 om 06 UTC
Wind 8 kt uit het noordoosten

TAF: FIMP 171120Z 1712/1818 05012KT 9999 SCT018 BECMG 1720/1722 33005KT PROB30 TEMPO 1800/1806 7000 -SHRA BKN015 BECMG 1804/1806 04008KT

Waarnemingen en weersverwachtingen van meer dan 4000 vliegvelden (METAR en TAF).

De beschikbare stations zijn de gele en rode punten op de kaart.

Ga met uw muis naar het station om de naam te zien.

Klik dan om waarnemingen en weersverwachtingen te zien.

kaart wijzigen: klik op de groene knoppen met een zwart kruis om in te zoomen, op de groene knop met een streepje om uit te zoomen of op de groene pijlen voor aangrenzende kaarten.


METAR-TAF: